Time;durP1;ratioP1;P1;durP2;ratioP2;P2;SDS_P1;SDS_P2;PMS_P1;PMS_P2;Temp;Humidity;BMP_temperature;BMP_pressure;BME280_temperature;BME280_humidity;BME280_pressure;Samples;Min_cycle;Max_cycle;Signal;HPM_P1;HPM_P2
2022/09/16 00:00:21;;;;;;;10.40;4.57;;;;;;;22.55;56.59;99417.91;5037151;28;20087;-78
2022/09/16 00:02:46;;;;;;;14.65;5.63;;;;;;;22.59;56.06;99422.06;5027679;28;20064;-80
2022/09/16 00:05:12;;;;;;;15.90;4.93;;;;;;;23.26;56.00;99541.69;5026332;28;20128;-80
2022/09/16 00:07:38;;;;;;;8.52;4.68;;;;;;;23.20;57.02;99548.28;5026467;28;20413;-79
2022/09/16 00:10:05;;;;;;;15.32;5.72;;;;;;;22.92;57.10;99503.72;4998843;28;20491;-80
2022/09/16 00:12:31;;;;;;;10.52;5.80;;;;;;;23.03;58.06;99538.69;5025567;28;20105;-80
2022/09/16 00:14:56;;;;;;;27.00;5.07;;;;;;;22.46;59.05;99466.63;5022320;28;20555;-80
2022/09/16 00:17:22;;;;;;;13.13;6.10;;;;;;;22.68;58.13;99515.06;5025304;28;20037;-81
2022/09/16 00:19:49;;;;;;;14.75;5.72;;;;;;;22.91;58.40;99539.47;5029858;28;20051;-80
2022/09/16 00:22:16;;;;;;;22.00;5.82;;;;;;;22.80;59.13;99526.78;5029610;28;20045;-81
2022/09/16 00:24:41;;;;;;;13.50;4.97;;;;;;;22.77;59.15;99521.66;5029933;28;20029;-78
2022/09/16 00:27:07;;;;;;;16.35;5.22;;;;;;;22.75;59.34;99519.06;5029709;28;20038;-77
2022/09/16 00:29:32;;;;;;;17.10;4.93;;;;;;;22.76;59.69;99527.97;5029491;28;20049;-80
2022/09/16 00:31:58;;;;;;;18.23;5.70;;;;;;;21.79;59.79;99381.75;5029750;28;20132;-79
2022/09/16 00:34:24;;;;;;;13.82;5.07;;;;;;;22.46;60.35;99502.22;5029640;28;20044;-77
2022/09/16 00:36:50;;;;;;;13.50;5.53;;;;;;;21.79;58.82;99403.09;5029190;28;20071;-79
2022/09/16 00:39:15;;;;;;;13.38;4.97;;;;;;;22.51;59.53;99517.97;5029454;28;20135;-80
2022/09/16 00:41:41;;;;;;;13.27;5.13;;;;;;;21.81;59.13;99414.56;5029409;28;20496;-80
2022/09/16 00:44:45;;;;;;;23.55;5.75;;;;;;;22.44;60.47;99520.19;5029255;28;20041;-79
2022/09/16 00:47:13;;;;;;;11.23;5.28;;;;;;;21.51;60.78;99377.25;5011633;28;20072;-79
2022/09/16 00:49:38;;;;;;;18.60;7.05;;;;;;;22.47;59.56;99533.34;5029451;28;20573;-79
2022/09/16 00:52:06;;;;;;;12.77;6.18;;;;;;;22.39;60.73;99524.13;5029521;28;20054;-80
2022/09/16 00:54:34;;;;;;;13.45;5.32;;;;;;;22.26;59.53;99508.84;5011915;28;20040;-80
2022/09/16 00:57:01;;;;;;;19.20;6.18;;;;;;;22.39;58.89;99524.13;5029263;28;20053;-79
2022/09/16 00:59:42;;;;;;;15.00;6.35;;;;;;;22.45;58.47;99532.63;5029111;28;20143;-79
2022/09/16 01:02:12;;;;;;;21.50;6.03;;;;;;;22.33;58.44;99503.97;5029078;28;20104;-79
2022/09/16 01:04:51;;;;;;;11.73;5.20;;;;;;;22.43;58.41;99521.16;5028878;28;20132;-80
2022/09/16 01:07:25;;;;;;;10.57;4.30;;;;;;;21.54;58.08;99371.75;5029091;28;20040;-79
2022/09/16 01:09:51;;;;;;;13.60;5.45;;;;;;;21.95;57.98;99450.25;5028859;28;20348;-80
2022/09/16 01:12:16;;;;;;;16.48;7.00;;;;;;;22.38;58.52;99528.59;5028173;28;20026;-79
2022/09/16 01:14:57;;;;;;;20.50;6.20;;;;;;;22.10;58.50;99478.66;5027640;28;20116;-81
2022/09/16 01:17:45;;;;;;;16.50;6.45;;;;;;;22.32;58.68;99518.28;5008960;28;20057;-79
2022/09/16 01:20:48;;;;;;;20.00;6.28;;;;;;;22.35;58.09;99515.41;5028837;28;20050;-80
2022/09/16 01:23:55;;;;;;;12.52;5.28;;;;;;;22.30;58.70;99515.72;5010497;28;20041;-80
2022/09/16 01:26:30;;;;;;;20.15;5.97;;;;;;;22.31;59.90;99501.41;5021061;28;20136;-80
2022/09/16 01:29:14;;;;;;;11.55;5.47;;;;;;;22.26;58.99;99497.28;5028638;28;20046;-79
2022/09/16 01:31:52;;;;;;;12.75;5.88;;;;;;;21.98;58.51;99472.25;5028427;28;20124;-79
2022/09/16 01:34:23;;;;;;;17.67;6.25;;;;;;;22.15;59.08;99505.97;5028509;28;20033;-80
2022/09/16 01:37:01;;;;;;;12.15;5.43;;;;;;;21.87;58.25;99464.94;5028499;28;20048;-80
2022/09/16 01:39:58;;;;;;;12.13;4.53;;;;;;;21.59;58.14;99412.38;5029135;28;20810;-80
2022/09/16 01:42:46;;;;;;;17.17;4.60;;;;;;;21.65;57.84;99400.44;5028816;28;20042;-79
2022/09/16 01:45:30;;;;;;;18.13;4.43;;;;;;;22.28;58.01;99522.97;5004696;28;20132;-79
2022/09/16 01:48:07;;;;;;;9.95;4.30;;;;;;;22.34;57.78;99537.78;4989127;28;20069;-77
2022/09/16 01:50:51;;;;;;;13.73;5.10;;;;;;;22.32;57.68;99532.50;4987607;28;20050;-78
2022/09/16 01:53:48;;;;;;;12.23;5.03;;;;;;;21.44;57.43;99384.78;4989030;28;20089;-78
2022/09/16 01:56:25;;;;;;;15.70;5.57;;;;;;;22.21;57.46;99508.25;4984325;28;20053;-80
2022/09/16 01:59:15;;;;;;;10.60;3.45;;;;;;;22.39;57.22;99527.66;4989215;28;20069;-78
2022/09/16 02:01:48;;;;;;;16.55;4.55;;;;;;;22.22;57.53;99511.78;4989102;28;20141;-78
2022/09/16 02:04:20;;;;;;;7.45;3.90;;;;;;;22.46;57.14;99536.13;4989070;28;20057;-79
2022/09/16 02:06:49;;;;;;;10.27;3.88;;;;;;;22.39;57.71;99538.34;4988723;28;20038;-78
2022/09/16 02:09:32;;;;;;;12.32;3.85;;;;;;;22.47;56.76;99525.31;4989416;28;20113;-80
2022/09/16 02:12:04;;;;;;;15.50;3.75;;;;;;;22.41;58.64;99524.88;5003172;28;20045;-79
2022/09/16 02:14:39;;;;;;;20.30;4.10;;;;;;;22.38;58.37;99523.22;5007320;28;20486;-79
2022/09/16 02:17:08;;;;;;;7.97;4.10;;;;;;;21.79;56.24;99399.59;5000972;28;20276;-79
2022/09/16 02:19:42;;;;;;;14.75;3.75;;;;;;;21.77;56.55;99391.66;5008162;28;20058;-80
2022/09/16 02:22:12;;;;;;;14.48;3.92;;;;;;;21.79;57.40;99399.59;5007336;28;20042;-79
2022/09/16 02:24:40;;;;;;;12.50;3.80;;;;;;;22.29;57.40;99483.75;5008039;28;20068;-79
2022/09/16 02:27:11;;;;;;;13.40;5.20;;;;;;;22.46;57.66;99528.13;5007818;28;20177;-79
2022/09/16 02:29:48;;;;;;;9.90;3.65;;;;;;;22.45;57.70;99526.38;5006614;28;20050;-76
2022/09/16 02:32:15;;;;;;;12.48;4.25;;;;;;;22.57;56.54;99522.94;5007813;28;20048;-79
2022/09/16 02:34:47;;;;;;;13.63;3.90;;;;;;;22.55;56.20;99515.03;5007741;28;20046;-79
2022/09/16 02:37:29;;;;;;;6.38;4.15;;;;;;;21.87;55.77;99394.63;5006611;28;20058;-79
2022/09/16 02:40:03;;;;;;;16.63;4.73;;;;;;;22.59;57.79;99522.84;5012482;28;20052;-81
2022/09/16 02:42:29;;;;;;;13.70;4.35;;;;;;;22.64;55.71;99520.72;5027508;28;20760;-79
2022/09/16 02:44:56;;;;;;;6.65;3.10;;;;;;;22.45;57.10;99513.00;5022662;28;20650;-79
2022/09/16 02:47:29;;;;;;;20.00;4.20;;;;;;;22.61;55.96;99532.47;5007088;28;20042;-78
2022/09/16 02:50:16;;;;;;;17.20;3.58;;;;;;;22.63;55.82;99548.44;5005777;28;20557;-78
2022/09/16 02:53:14;;;;;;;8.63;3.30;;;;;;;22.51;56.13;99550.06;5007171;28;20046;-77
2022/09/16 02:56:01;;;;;;;13.23;3.42;;;;;;;22.54;56.08;99553.38;5022212;28;20191;-79
2022/09/16 02:58:28;;;;;;;12.98;4.35;;;;;;;21.90;56.37;99450.53;5030464;28;20045;-78
2022/09/16 03:00:55;;;;;;;12.43;4.63;;;;;;;21.91;56.12;99439.75;5014903;28;20033;-79
2022/09/16 03:03:21;;;;;;;11.27;3.40;;;;;;;21.82;55.84;99418.97;5027444;28;20033;-79
2022/09/16 03:06:04;;;;;;;14.25;4.53;;;;;;;22.60;56.16;99548.63;5027193;28;20049;-79
2022/09/16 03:08:32;;;;;;;6.00;3.20;;;;;;;22.34;55.73;99487.00;5026763;28;20045;-79
2022/09/16 03:11:06;;;;;;;11.45;3.60;;;;;;;22.50;56.24;99541.19;5026686;28;20095;-79
2022/09/16 03:13:45;;;;;;;12.63;3.35;;;;;;;21.59;56.10;99399.03;5008939;28;20041;-79
2022/09/16 03:16:42;;;;;;;11.25;3.97;;;;;;;22.32;56.64;99510.28;5019296;28;20042;-79
2022/09/16 03:19:45;;;;;;;16.00;4.43;;;;;;;22.47;56.79;99529.81;4993908;28;20047;-80
2022/09/16 03:22:51;;;;;;;26.85;3.70;;;;;;;22.45;56.44;99529.06;5009200;28;20120;-78
2022/09/16 03:25:31;;;;;;;13.55;4.15;;;;;;;22.38;57.40;99531.25;5004836;28;20220;-79
2022/09/16 03:28:06;;;;;;;14.82;3.92;;;;;;;21.55;57.36;99399.31;5009074;28;20104;-79
2022/09/16 03:30:38;;;;;;;16.73;5.55;;;;;;;21.93;57.03;99456.50;5027190;28;20116;-80
2022/09/16 03:33:19;;;;;;;12.43;4.80;;;;;;;22.21;57.54;99515.44;5007874;28;20417;-78
2022/09/16 03:35:48;;;;;;;13.60;3.53;;;;;;;21.79;57.37;99459.19;5024342;28;20044;-79
2022/09/16 03:38:16;;;;;;;8.68;3.72;;;;;;;22.17;58.32;99527.22;5026656;28;20046;-79
2022/09/16 03:40:42;;;;;;;8.02;3.35;;;;;;;22.18;57.99;99537.84;5016670;28;20140;-78
2022/09/16 03:43:12;;;;;;;14.18;3.50;;;;;;;21.91;57.78;99478.94;4989056;28;20089;-79
2022/09/16 03:45:39;;;;;;;17.80;3.65;;;;;;;21.47;57.77;99394.44;4997574;28;20077;-79
2022/09/16 03:48:05;;;;;;;19.23;4.50;;;;;;;22.11;57.73;99520.47;4969646;28;20052;-79
2022/09/16 03:50:30;;;;;;;9.73;2.92;;;;;;;21.82;58.09;99485.72;4988967;28;20269;-79
2022/09/16 03:52:56;;;;;;;13.43;3.10;;;;;;;22.04;57.86;99505.78;4991071;28;20042;-79
2022/09/16 03:55:23;;;;;;;11.85;3.00;;;;;;;21.41;58.10;99402.81;5004915;28;20038;-79
2022/09/16 03:57:48;;;;;;;13.20;3.00;;;;;;;21.99;57.94;99516.75;5010543;28;20042;-79
2022/09/16 04:00:15;;;;;;;12.00;4.22;;;;;;;21.99;58.07;99494.50;4993155;28;20041;-79
2022/09/16 04:02:40;;;;;;;19.88;3.90;;;;;;;21.42;58.35;99420.53;5010322;28;20049;-78
2022/09/16 04:05:07;;;;;;;13.65;3.70;;;;;;;21.37;58.25;99417.25;5010267;28;20485;-79
2022/09/16 04:07:33;;;;;;;9.00;2.53;;;;;;;21.34;58.89;99412.13;5010155;28;20056;-78
2022/09/16 04:09:58;;;;;;;13.90;3.13;;;;;;;21.51;59.54;99444.00;5010138;28;20504;-79
2022/09/16 04:12:24;;;;;;;14.05;3.67;;;;;;;21.30;58.75;99411.44;5010224;28;20026;-78
2022/09/16 04:14:49;;;;;;;14.43;3.50;;;;;;;22.01;58.73;99530.88;5006805;28;20049;-79
2022/09/16 04:17:16;;;;;;;9.27;3.67;;;;;;;21.20;58.18;99372.94;5004448;28;20054;-79
2022/09/16 04:19:43;;;;;;;11.18;3.40;;;;;;;22.07;58.16;99506.41;5009902;28;20109;-78
2022/09/16 04:22:08;;;;;;;7.47;2.55;;;;;;;21.96;58.60;99500.91;5028016;28;20374;-79
2022/09/16 04:24:34;;;;;;;10.40;3.03;;;;;;;21.92;58.29;99486.88;5016062;28;20037;-79
2022/09/16 04:27:00;;;;;;;6.63;2.13;;;;;;;21.87;58.64;99477.44;5009565;28;20732;-79
2022/09/16 04:29:26;;;;;;;9.48;3.00;;;;;;;21.33;58.49;99379.25;5009685;28;20176;-78
2022/09/16 04:31:52;;;;;;;9.80;3.47;;;;;;;21.96;58.52;99484.88;5009970;28;20065;-79
2022/09/16 04:34:18;;;;;;;18.00;3.70;;;;;;;21.34;58.56;99380.09;4991518;28;20065;-78
2022/09/16 04:36:44;;;;;;;21.55;3.55;;;;;;;21.53;58.56;99407.41;5009488;28;20064;-80
2022/09/16 04:39:11;;;;;;;10.60;3.10;;;;;;;21.41;58.58;99395.66;5009210;28;20037;-80
2022/09/16 04:41:36;;;;;;;19.52;3.83;;;;;;;22.14;58.11;99507.75;5009246;28;20092;-80
2022/09/16 04:44:02;;;;;;;15.45;3.75;;;;;;;21.64;57.88;99417.44;5008723;28;20524;-80
2022/09/16 04:46:31;;;;;;;11.60;4.70;;;;;;;21.90;58.10;99477.22;4992729;28;20078;-79
2022/09/16 04:48:57;;;;;;;22.67;5.95;;;;;;;21.53;57.71;99430.56;4971942;28;20034;-80
2022/09/16 04:51:27;;;;;;;17.15;4.68;;;;;;;22.28;57.85;99541.66;4989884;28;20046;-78
2022/09/16 04:53:54;;;;;;;16.05;3.42;;;;;;;22.43;58.11;99577.28;4991303;28;20172;-78
2022/09/16 04:56:22;;;;;;;5.95;2.58;;;;;;;21.68;58.51;99454.53;4990808;28;20101;-81
2022/09/16 04:58:56;;;;;;;29.08;4.30;;;;;;;22.31;57.95;99552.19;4990719;28;20104;-80
2022/09/16 05:01:40;;;;;;;16.95;3.63;;;;;;;21.81;57.23;99459.09;4990262;28;20069;-80
2022/09/16 05:04:07;;;;;;;15.93;3.38;;;;;;;21.80;57.84;99458.25;5008634;28;20048;-79
2022/09/16 05:06:37;;;;;;;12.77;2.75;;;;;;;22.31;58.07;99552.19;5009780;28;20037;-79
2022/09/16 05:09:03;;;;;;;25.58;3.50;;;;;;;22.33;57.82;99544.91;4990887;28;20053;-80
2022/09/16 05:11:32;;;;;;;10.70;3.13;;;;;;;22.55;57.62;99564.97;5008632;28;20045;-79
2022/09/16 05:14:09;;;;;;;12.52;3.08;;;;;;;22.60;57.46;99581.56;5008402;28;20061;-80
2022/09/16 05:16:35;;;;;;;14.60;3.13;;;;;;;22.63;58.29;99594.75;4987802;28;20144;-78
2022/09/16 05:19:03;;;;;;;8.77;2.40;;;;;;;21.91;57.48;99452.22;5008224;28;20034;-78
2022/09/16 05:21:31;;;;;;;10.43;3.35;;;;;;;21.90;57.35;99435.34;5028536;28;20033;-78
2022/09/16 05:24:01;;;;;;;26.42;3.53;;;;;;;22.61;57.97;99547.66;5000036;28;20038;-80
2022/09/16 05:26:30;;;;;;;22.50;3.88;;;;;;;23.00;57.24;99578.19;5006954;28;20046;-79
2022/09/16 05:28:58;;;;;;;6.43;3.13;;;;;;;23.45;56.05;99586.84;5008931;28;20058;-79
2022/09/16 05:31:26;;;;;;;9.88;3.50;;;;;;;23.87;54.41;99568.84;5008977;28;20050;-78
2022/09/16 05:33:53;;;;;;;17.17;4.88;;;;;;;23.59;53.78;99511.78;5010530;28;20042;-79
2022/09/16 05:36:20;;;;;;;14.68;3.85;;;;;;;24.08;53.96;99575.41;5010751;28;20045;-80
2022/09/16 05:38:46;;;;;;;15.68;3.25;;;;;;;24.78;53.00;99585.66;5009120;28;20049;-78
2022/09/16 05:41:12;;;;;;;6.35;2.85;;;;;;;24.07;51.95;99474.53;5009718;28;20107;-78
2022/09/16 05:43:37;;;;;;;11.13;3.20;;;;;;;24.98;51.69;99584.22;5009637;28;20050;-77
2022/09/16 05:46:05;;;;;;;7.22;3.22;;;;;;;25.25;50.57;99580.50;4986508;28;20064;-78
2022/09/16 05:48:31;;;;;;;10.50;2.47;;;;;;;24.83;50.69;99512.88;4987165;28;20486;-77
2022/09/16 05:51:00;;;;;;;21.52;3.97;;;;;;;24.45;51.34;99489.69;4988400;28;20046;-79
2022/09/16 05:53:27;;;;;;;14.00;3.70;;;;;;;24.89;51.00;99533.91;4987036;28;20065;-78
2022/09/16 05:55:58;;;;;;;8.50;3.13;;;;;;;25.25;50.89;99608.19;5006447;28;20061;-82
2022/09/16 05:58:25;;;;;;;17.25;3.42;;;;;;;24.83;50.88;99486.88;4990161;28;20058;-79
2022/09/16 06:00:56;;;;;;;7.57;2.65;;;;;;;24.62;51.92;99483.13;5007499;28;20130;-78
2022/09/16 06:03:22;;;;;;;23.42;4.05;;;;;;;24.81;52.54;99561.28;5009209;28;20038;-78
2022/09/16 06:05:47;;;;;;;12.75;3.78;;;;;;;24.95;51.94;99560.28;5007642;28;20130;-78
2022/09/16 06:08:13;;;;;;;12.30;3.80;;;;;;;24.41;52.84;99501.59;5007494;28;20049;-78
2022/09/16 06:10:40;;;;;;;20.95;3.83;;;;;;;24.82;52.73;99584.50;5007351;28;20049;-78
2022/09/16 06:13:06;;;;;;;16.08;3.63;;;;;;;24.56;53.48;99577.44;5010223;28;20038;-78
2022/09/16 06:15:31;;;;;;;13.65;3.47;;;;;;;23.89;54.06;99481.19;5012857;28;20053;-80
2022/09/16 06:17:57;;;;;;;8.57;2.47;;;;;;;24.44;54.50;99584.50;4986813;28;20494;-79
2022/09/16 06:20:23;;;;;;;14.13;4.90;;;;;;;23.54;54.65;99434.41;5006090;28;20679;-77
2022/09/16 06:22:48;;;;;;;12.20;3.00;;;;;;;23.89;54.08;99467.78;5007464;28;20073;-78
2022/09/16 06:25:14;;;;;;;17.63;3.53;;;;;;;23.63;55.18;99481.16;5006778;28;20825;-78
2022/09/16 06:27:39;;;;;;;21.77;3.97;;;;;;;23.48;55.04;99466.97;4990146;28;20689;-79
2022/09/16 06:30:05;;;;;;;23.95;2.95;;;;;;;23.83;55.25;99506.56;4989364;28;20054;-78
2022/09/16 06:32:31;;;;;;;15.10;4.05;;;;;;;23.48;56.12;99472.31;5006921;28;20569;-79
2022/09/16 06:34:56;;;;;;;15.23;4.03;;;;;;;23.93;55.56;99536.28;5006703;28;20057;-79
2022/09/16 06:37:22;;;;;;;7.40;3.53;;;;;;;23.57;55.78;99481.56;5006804;28;20073;-79
2022/09/16 06:39:47;;;;;;;15.57;4.35;;;;;;;24.13;55.64;99575.09;5006982;28;20046;-80
2022/09/16 06:42:13;;;;;;;6.18;3.65;;;;;;;24.21;56.13;99613.81;5007773;28;20088;-78
2022/09/16 06:44:40;;;;;;;13.55;3.72;;;;;;;24.03;55.82;99582.91;5006394;28;20049;-78
2022/09/16 06:47:05;;;;;;;11.95;4.50;;;;;;;23.42;56.95;99477.28;5007006;28;20085;-79
2022/09/16 06:49:31;;;;;;;6.88;3.67;;;;;;;24.19;57.36;99623.78;5006697;28;20419;-78
2022/09/16 06:51:56;;;;;;;13.90;4.30;;;;;;;24.27;56.17;99611.66;5006496;28;20034;-78
2022/09/16 06:54:22;;;;;;;13.10;3.65;;;;;;;23.77;56.21;99520.41;5002413;28;20089;-79
2022/09/16 06:56:48;;;;;;;11.05;4.22;;;;;;;23.65;56.12;99489.06;4986891;28;20070;-78
2022/09/16 06:59:13;;;;;;;7.38;3.22;;;;;;;23.66;55.72;99501.50;4986922;28;20055;-79
2022/09/16 07:01:40;;;;;;;10.02;2.50;;;;;;;23.71;55.83;99508.25;4991690;28;20094;-78
2022/09/16 07:04:09;;;;;;;11.10;3.17;;;;;;;23.79;56.00;99492.53;4988692;28;20095;-80
2022/09/16 07:06:36;;;;;;;15.40;3.63;;;;;;;24.56;55.70;99606.94;5006967;28;20034;-78
2022/09/16 07:09:02;;;;;;;7.63;3.30;;;;;;;23.88;55.71;99493.72;5006361;28;20076;-80
2022/09/16 07:11:28;;;;;;;11.10;2.83;;;;;;;24.54;55.80;99603.53;5006730;28;20050;-80
2022/09/16 07:13:55;;;;;;;11.13;4.90;;;;;;;24.38;55.35;99560.81;5006481;28;20654;-80
2022/09/16 07:16:25;;;;;;;14.85;5.00;;;;;;;24.74;55.21;99615.50;5000260;28;20053;-80
2022/09/16 07:18:55;;;;;;;12.55;3.28;;;;;;;24.83;54.93;99641.69;5004718;28;20141;-79
2022/09/16 07:21:24;;;;;;;7.97;3.85;;;;;;;24.95;54.40;99650.69;5006875;28;20057;-78
2022/09/16 07:23:58;;;;;;;9.70;2.53;;;;;;;24.42;54.06;99552.44;5007431;28;20125;-80
2022/09/16 07:26:29;;;;;;;5.72;2.67;;;;;;;25.02;54.22;99636.69;5010644;28;20144;-82
2022/09/16 07:28:58;;;;;;;10.38;3.65;;;;;;;25.08;54.02;99650.69;5009025;28;20136;-79
2022/09/16 07:31:26;;;;;;;17.55;3.47;;;;;;;25.08;54.11;99645.31;5009108;28;20508;-80
2022/09/16 07:33:54;;;;;;;7.60;2.70;;;;;;;24.73;53.37;99573.56;5010339;28;20038;-79
2022/09/16 07:36:26;;;;;;;11.70;3.20;;;;;;;24.81;52.77;99574.69;5011136;28;20040;-79
2022/09/16 07:38:58;;;;;;;6.35;2.65;;;;;;;25.28;53.00;99648.25;5010537;28;20577;-78
2022/09/16 07:41:28;;;;;;;7.72;3.03;;;;;;;25.29;52.85;99635.72;5010954;28;20111;-79
2022/09/16 07:43:58;;;;;;;12.45;2.55;;;;;;;24.74;53.15;99537.69;5009794;28;20127;-80
2022/09/16 07:46:25;;;;;;;15.25;3.13;;;;;;;24.77;52.51;99537.47;4978031;28;20406;-80
2022/09/16 07:48:51;;;;;;;6.80;2.75;;;;;;;24.97;52.19;99549.44;4972698;28;20031;-78
2022/09/16 07:51:19;;;;;;;11.50;3.33;;;;;;;24.90;51.87;99540.97;4973134;28;20046;-80
2022/09/16 07:53:46;;;;;;;14.20;4.43;;;;;;;25.39;51.75;99628.66;4991641;28;20043;-78
2022/09/16 07:56:14;;;;;;;16.27;2.92;;;;;;;24.88;51.83;99545.59;5009972;28;20486;-79
2022/09/16 07:58:41;;;;;;;11.55;3.85;;;;;;;25.02;50.62;99540.06;5009389;28;20054;-79
2022/09/16 08:01:07;;;;;;;7.22;2.15;;;;;;;25.72;50.36;99648.63;5010189;28;20044;-80
2022/09/16 08:03:34;;;;;;;5.20;1.88;;;;;;;25.77;50.32;99653.66;5010237;28;20042;-79
2022/09/16 08:06:02;;;;;;;10.93;2.47;;;;;;;25.90;48.76;99659.84;5009640;28;20045;-80
2022/09/16 08:08:28;;;;;;;5.57;1.92;;;;;;;25.78;48.41;99636.53;5009675;28;20088;-79
2022/09/16 08:10:55;;;;;;;7.93;2.17;;;;;;;25.42;48.55;99560.44;5009592;28;20467;-80
2022/09/16 08:13:21;;;;;;;7.32;1.95;;;;;;;25.90;48.41;99652.63;5009024;28;20482;-78
2022/09/16 08:15:46;;;;;;;5.43;2.03;;;;;;;26.04;48.40;99662.34;5005997;28;20120;-77
2022/09/16 08:18:12;;;;;;;4.10;1.45;;;;;;;25.66;47.73;99574.72;4998412;28;20124;-81
2022/09/16 08:20:37;;;;;;;12.45;2.50;;;;;;;26.18;47.62;99669.34;5008720;28;20053;-76
2022/09/16 08:23:02;;;;;;;7.80;2.17;;;;;;;26.23;47.07;99652.84;5010679;28;20042;-78
2022/09/16 08:25:28;;;;;;;8.45;2.08;;;;;;;26.09;46.38;99614.44;5011813;28;20044;-81
2022/09/16 08:27:54;;;;;;;8.13;2.00;;;;;;;25.68;46.25;99529.75;5009384;28;20109;-79
2022/09/16 08:30:20;;;;;;;18.70;2.70;;;;;;;26.37;46.46;99641.03;5009849;28;20026;-80
2022/09/16 08:32:45;;;;;;;17.52;2.45;;;;;;;25.67;45.70;99522.66;5009181;28;20038;-80
2022/09/16 08:35:13;;;;;;;10.40;2.70;;;;;;;25.55;46.60;99514.69;4990631;28;20513;-80
2022/09/16 08:37:39;;;;;;;6.68;1.95;;;;;;;25.64;45.88;99543.56;5009479;28;20061;-78
2022/09/16 08:40:05;;;;;;;8.25;1.80;;;;;;;25.71;46.31;99536.72;5009903;28;20038;-79
2022/09/16 08:43:01;;;;;;;4.88;1.15;;;;;;;26.32;45.88;99638.69;5028964;28;20064;-79
2022/09/16 08:45:40;;;;;;;8.45;2.10;;;;;;;25.64;46.40;99530.13;5021937;28;20417;-80
2022/09/16 08:48:09;;;;;;;12.32;3.22;;;;;;;26.53;46.37;99655.84;5009206;28;20057;-79
2022/09/16 08:50:47;;;;;;;20.05;2.05;;;;;;;26.58;45.96;99658.19;5009176;28;20086;-80
2022/09/16 08:53:33;;;;;;;5.82;1.73;;;;;;;26.63;44.65;99639.00;4991162;28;20118;-81
2022/09/16 08:56:03;;;;;;;4.55;1.88;;;;;;;26.16;44.67;99550.28;5031123;28;20060;-82
2022/09/16 08:58:47;;;;;;;5.72;2.17;;;;;;;26.82;44.78;99630.31;5033880;28;20061;-81
2022/09/16 09:01:24;;;;;;;9.10;1.67;;;;;;;26.95;45.50;99650.75;5029369;28;20096;-78
2022/09/16 09:03:50;;;;;;;5.63;2.28;;;;;;;26.99;44.81;99632.50;5048575;28;20041;-81
2022/09/16 09:06:53;;;;;;;4.30;2.13;;;;;;;27.05;45.27;99650.84;5048927;28;20032;-80
2022/09/16 09:09:44;;;;;;;7.43;2.03;;;;;;;27.00;44.29;99639.59;5043280;28;20061;-82
2022/09/16 09:12:19;;;;;;;6.97;2.25;;;;;;;26.38;44.99;99525.22;5028502;28;20061;-80
2022/09/16 09:15:22;;;;;;;9.70;1.52;;;;;;;26.97;45.01;99601.28;5026959;28;20061;-80
2022/09/16 09:17:54;;;;;;;4.40;1.90;;;;;;;26.58;43.54;99512.03;5006536;28;20506;-80
2022/09/16 09:20:58;;;;;;;11.73;2.10;;;;;;;27.33;42.84;99636.03;5008603;28;20046;-80
2022/09/16 09:23:42;;;;;;;16.30;2.33;;;;;;;27.46;42.93;99635.84;5012225;28;20475;-81
2022/09/16 09:26:25;;;;;;;10.95;1.90;;;;;;;27.49;43.36;99635.59;5028006;28;20076;-76
2022/09/16 09:28:57;;;;;;;11.77;2.03;;;;;;;27.36;43.59;99651.06;5010043;28;20132;-80
2022/09/16 09:31:35;;;;;;;7.32;0.85;;;;;;;26.73;42.95;99538.53;5027968;28;20040;-78
2022/09/16 09:34:41;;;;;;;5.70;2.15;;;;;;;27.46;42.61;99626.91;5027580;28;20075;-79
2022/09/16 09:37:34;;;;;;;4.60;1.75;;;;;;;27.07;40.79;99543.84;5002010;28;20124;-79
2022/09/16 09:40:15;;;;;;;;;;;;;;;27.69;41.11;99620.44;5028524;28;20044;-79
2022/09/16 09:42:57;;;;;;;2.78;1.27;;;;;;;27.75;40.45;99601.06;5028706;28;19991;-78
2022/09/16 09:45:28;;;;;;;4.22;0.98;;;;;;;27.84;40.43;99601.28;5019604;28;20038;-80
2022/09/16 09:48:04;;;;;;;5.00;1.10;;;;;;;27.24;40.83;99495.84;5006588;28;20078;-80
2022/09/16 09:50:43;;;;;;;3.53;1.05;;;;;;;28.14;39.69;99614.00;5013212;28;20046;-81
2022/09/16 09:53:17;;;;;;;18.83;1.38;;;;;;;28.26;39.76;99637.25;5027173;28;20045;-81
2022/09/16 09:55:43;;;;;;;6.55;1.50;;;;;;;28.28;39.22;99642.47;5026974;28;20045;-81
2022/09/16 09:58:12;;;;;;;4.32;0.95;;;;;;;28.18;39.10;99640.56;5027236;28;20444;-81
2022/09/16 10:00:37;;;;;;;10.23;2.05;;;;;;;28.26;38.63;99641.75;5009708;28;20037;-76
2022/09/16 10:03:17;;;;;;;3.80;1.35;;;;;;;28.35;38.95;99627.47;5027329;28;20645;-80
2022/09/16 10:05:44;;;;;;;1.90;0.90;;;;;;;28.31;38.07;99610.72;5026507;28;20087;-80
2022/09/16 10:08:39;;;;;;;3.65;1.20;;;;;;;27.82;37.89;99531.31;5027291;28;20077;-81
2022/09/16 10:11:20;;;;;;;9.73;1.88;;;;;;;27.60;37.95;99521.50;5027126;28;20515;-80
2022/09/16 10:13:57;;;;;;;4.07;1.15;;;;;;;28.19;37.82;99636.91;5008829;28;20052;-78
2022/09/16 10:16:49;;;;;;;4.25;0.70;;;;;;;28.31;38.07;99658.44;5021721;28;20037;-79
2022/09/16 10:19:24;;;;;;;7.03;1.02;;;;;;;28.26;38.24;99642.63;5026903;28;20041;-80
2022/09/16 10:21:55;;;;;;;4.20;1.25;;;;;;;28.43;38.02;99641.16;5026695;28;20034;-81
2022/09/16 10:24:28;;;;;;;4.88;1.38;;;;;;;28.65;37.52;99659.06;5026645;28;20102;-81
2022/09/16 10:26:53;;;;;;;2.75;0.90;;;;;;;27.77;36.83;99542.47;5008571;28;20215;-80
2022/09/16 10:29:19;;;;;;;5.10;1.10;;;;;;;28.61;37.67;99663.91;5026441;28;20132;-80
2022/09/16 10:31:44;;;;;;;2.30;0.68;;;;;;;28.17;36.22;99552.56;5026653;28;20447;-81
2022/09/16 10:34:31;;;;;;;2.70;0.75;;;;;;;29.00;36.19;99665.91;5026404;28;20048;-81
2022/09/16 10:37:10;;;;;;;2.83;0.75;;;;;;;29.32;37.55;99656.78;5025933;28;20033;-80
2022/09/16 10:39:37;;;;;;;3.45;1.15;;;;;;;29.16;36.41;99641.94;5028321;28;20544;-81
2022/09/16 10:42:05;;;;;;;3.88;1.42;;;;;;;29.42;36.10;99636.03;5007882;28;20465;-79
2022/09/16 10:44:35;;;;;;;6.25;1.58;;;;;;;28.87;34.33;99543.72;5026388;28;20501;-82
2022/09/16 10:47:09;;;;;;;3.60;0.70;;;;;;;28.91;33.69;99531.66;5015700;28;20056;-78
2022/09/16 10:49:48;;;;;;;2.67;1.15;;;;;;;29.13;34.75;99536.00;5026325;28;20045;-78
2022/09/16 10:52:15;;;;;;;1.75;0.68;;;;;;;29.10;34.66;99534.41;5026877;28;20049;-81
2022/09/16 10:54:41;;;;;;;8.70;1.42;;;;;;;29.57;35.28;99623.81;5027241;28;20037;-81
2022/09/16 10:57:40;;;;;;;1.27;0.60;;;;;;;29.91;35.33;99653.16;5008020;28;20048;-81
2022/09/16 11:00:10;;;;;;;7.15;1.33;;;;;;;30.04;34.24;99658.28;4981955;28;20046;-82
2022/09/16 11:02:38;;;;;;;3.75;1.55;;;;;;;30.13;34.97;99653.84;5026199;28;20199;-79
2022/09/16 11:05:24;;;;;;;4.50;0.90;;;;;;;29.93;34.73;99637.66;5045380;28;20132;-82
2022/09/16 11:07:50;;;;;;;10.52;1.45;;;;;;;30.18;34.82;99647.03;5027727;28;20101;-80
2022/09/16 11:10:33;;;;;;;8.57;1.05;;;;;;;29.80;34.76;99648.75;5026161;28;20409;-80
2022/09/16 11:13:20;;;;;;;2.63;1.38;;;;;;;29.78;35.40;99639.94;5026591;28;20037;-81
2022/09/16 11:15:54;;;;;;;5.97;0.98;;;;;;;29.54;36.06;99645.72;5005280;28;20026;-79
2022/09/16 11:18:25;;;;;;;3.03;0.88;;;;;;;29.52;35.51;99623.38;5025589;28;20755;-80
2022/09/16 11:21:03;;;;;;;1.70;0.80;;;;;;;29.83;35.97;99632.25;5026421;28;20501;-79
2022/09/16 11:23:28;;;;;;;13.80;1.15;;;;;;;29.77;35.33;99635.50;5025926;28;20037;-81
2022/09/16 11:26:12;;;;;;;5.78;1.60;;;;;;;29.70;35.95;99622.72;5025856;28;20099;-80
2022/09/16 11:29:08;;;;;;;5.10;0.63;;;;;;;29.57;36.07;99623.81;5026068;28;20096;-79
2022/09/16 11:31:57;;;;;;;1.70;1.00;;;;;;;29.41;35.66;99618.97;5026418;28;20497;-81
2022/09/16 11:34:25;;;;;;;7.40;1.52;;;;;;;29.50;36.12;99617.28;5026332;28;20553;-80
2022/09/16 11:36:51;;;;;;;4.07;1.45;;;;;;;28.64;36.14;99495.38;5026440;28;20128;-80
2022/09/16 11:39:31;;;;;;;6.97;0.75;;;;;;;29.02;35.61;99632.34;5027010;28;20378;-80
2022/09/16 11:42:03;;;;;;;4.78;1.00;;;;;;;29.02;36.06;99610.75;4995595;28;20415;-82
2022/09/16 11:45:10;;;;;;;6.82;0.85;;;;;;;28.75;36.84;99587.06;4988638;28;20054;-80
2022/09/16 11:47:44;;;;;;;2.90;1.23;;;;;;;28.94;36.92;99613.28;4972789;28;20061;-79
2022/09/16 11:50:32;;;;;;;1.65;0.82;;;;;;;29.14;35.62;99594.44;4988494;28;20069;-79
2022/09/16 11:53:03;;;;;;;4.07;1.10;;;;;;;29.29;36.44;99603.88;5006635;28;20145;-81